createdAt,value
2017-12-17T05:00:34.414Z,2.5
2017-12-17T05:00:59.901Z,2.39
2017-12-17T05:01:25.386Z,2.51
2017-12-17T05:01:50.879Z,2.54
2017-12-17T05:02:16.351Z,2.6
2017-12-17T05:02:41.819Z,2.62
2017-12-17T05:03:07.307Z,2.56
2017-12-17T05:03:32.812Z,2.53
2017-12-17T05:03:58.266Z,2.61
2017-12-17T05:04:23.782Z,2.57
2017-12-17T05:04:49.256Z,2.62
2017-12-17T05:05:14.773Z,2.53
2017-12-17T05:05:40.241Z,2.54
2017-12-17T05:06:05.740Z,2.53
2017-12-17T05:06:31.242Z,2.56
2017-12-17T05:06:56.774Z,2.54
2017-12-17T05:07:22.274Z,2.46
2017-12-17T05:07:47.767Z,2.57
2017-12-17T05:08:13.246Z,2.49
2017-12-17T05:08:38.817Z,2.54
2017-12-17T05:09:47.519Z,2.47
2017-12-17T05:10:13.012Z,2.46
2017-12-17T05:10:38.481Z,2.38
2017-12-17T05:11:03.954Z,2.43
2017-12-17T05:11:29.463Z,2.44
2017-12-17T05:11:54.962Z,2.42
2017-12-17T05:12:20.467Z,2.39
2017-12-17T05:12:45.929Z,2.43
2017-12-17T05:13:11.460Z,2.46
2017-12-17T05:13:36.943Z,2.43
2017-12-17T05:14:02.465Z,2.39
2017-12-17T05:14:27.946Z,2.44
2017-12-17T05:16:59.526Z,2.36
2017-12-17T05:17:25.030Z,2.39
2017-12-17T05:17:50.499Z,2.47
2017-12-17T05:18:16.015Z,2.39
2017-12-17T05:18:41.522Z,2.39
2017-12-17T05:19:07.040Z,2.35
2017-12-17T05:19:32.528Z,2.39
2017-12-17T05:19:58.033Z,2.39
2017-12-17T05:20:23.513Z,2.43
2017-12-17T05:20:48.997Z,2.38
2017-12-17T05:21:14.494Z,2.43
2017-12-17T05:21:39.998Z,2.35
2017-12-17T05:22:05.469Z,2.33
2017-12-17T05:22:31.011Z,2.39
2017-12-17T05:22:56.465Z,2.36
2017-12-17T05:23:22.017Z,2.35
2017-12-17T05:23:47.486Z,2.38
2017-12-17T05:24:12.987Z,2.32
2017-12-17T05:24:38.470Z,2.32
2017-12-17T05:25:03.934Z,2.28
2017-12-17T05:25:29.413Z,2.24
2017-12-17T05:25:54.972Z,2.24
2017-12-17T05:26:20.445Z,2.29
2017-12-17T05:26:45.949Z,2.24
2017-12-17T05:27:11.446Z,2.22
2017-12-17T05:27:36.929Z,2.24
2017-12-17T05:28:02.415Z,2.17
2017-12-17T05:28:27.913Z,2.14
2017-12-17T05:28:53.404Z,2.14
2017-12-17T05:29:18.918Z,2.2
2017-12-17T05:29:44.394Z,2.2
2017-12-17T05:30:09.915Z,2.14
2017-12-17T05:30:35.413Z,2.11
2017-12-17T05:31:00.894Z,2.11
2017-12-17T05:31:26.408Z,2.15
2017-12-17T05:31:51.878Z,2.13
2017-12-17T05:32:55.521Z,2.08
2017-12-17T05:33:21.006Z,2.08
2017-12-17T05:33:46.495Z,2.11
2017-12-17T05:34:11.991Z,2.1
2017-12-17T05:34:37.468Z,2.15
2017-12-17T05:35:02.958Z,2.07
2017-12-17T05:35:28.457Z,2.1
2017-12-17T05:35:53.947Z,2.08
2017-12-17T05:36:19.442Z,2.07
2017-12-17T05:37:07.755Z,2.13
2017-12-17T05:37:33.236Z,2.13
2017-12-17T05:37:58.730Z,2.13
2017-12-17T05:38:24.225Z,2.1
2017-12-17T05:38:49.711Z,2.11
2017-12-17T05:39:15.197Z,2.13
2017-12-17T05:39:40.672Z,2.11
2017-12-17T05:40:06.147Z,2.07
2017-12-17T05:40:31.642Z,2.06
2017-12-17T05:40:57.116Z,2.13
2017-12-17T05:41:22.609Z,2.04
2017-12-17T05:42:31.307Z,1.94
2017-12-17T05:42:56.801Z,2
2017-12-17T05:43:22.293Z,1.97
2017-12-17T05:43:47.801Z,2.02
2017-12-17T05:44:13.297Z,2.06
2017-12-17T05:44:38.812Z,2.06
2017-12-17T05:45:04.298Z,2
2017-12-17T05:45:30.540Z,1.92
2017-12-17T05:45:56.034Z,1.95
2017-12-17T05:46:21.532Z,1.88
2017-12-17T05:46:47.040Z,1.78
2017-12-17T05:47:12.521Z,1.78
2017-12-17T05:47:38.021Z,1.89
2017-12-17T05:48:03.518Z,1.84
2017-12-17T05:48:29.021Z,1.92
2017-12-17T05:48:54.529Z,1.81
2017-12-17T05:49:20.042Z,1.84
2017-12-17T05:49:45.492Z,1.81
2017-12-17T05:50:10.981Z,1.88
2017-12-17T05:50:36.500Z,1.85
2017-12-17T05:51:01.990Z,1.88
2017-12-17T05:51:27.470Z,1.81
2017-12-17T05:51:52.977Z,1.81
2017-12-17T05:52:18.483Z,1.8
2017-12-17T05:52:43.989Z,1.78
2017-12-17T05:53:09.459Z,1.77
2017-12-17T05:53:34.930Z,1.68
2017-12-17T05:54:00.418Z,1.73
2017-12-17T05:54:25.911Z,1.84
2017-12-17T05:54:51.391Z,1.78
2017-12-17T05:55:16.852Z,1.74
2017-12-17T05:55:42.360Z,1.77
2017-12-17T05:56:07.873Z,1.73
2017-12-17T05:56:56.180Z,1.73
2017-12-17T05:57:21.680Z,1.68
2017-12-17T05:57:47.175Z,1.71
2017-12-17T05:58:12.692Z,1.67
2017-12-17T05:58:38.200Z,1.7
2017-12-17T05:59:03.676Z,1.67
2017-12-17T05:59:29.171Z,1.7
2017-12-17T05:59:54.709Z,1.63
2017-12-17T06:00:53.153Z,1.66
2017-12-17T06:01:18.746Z,1.6
2017-12-17T06:01:44.231Z,1.62
2017-12-17T06:02:09.724Z,1.67
2017-12-17T06:02:35.193Z,1.63
2017-12-17T06:03:00.686Z,1.63
2017-12-17T06:03:54.112Z,1.67
2017-12-17T06:04:19.602Z,1.63
2017-12-17T06:04:45.095Z,1.62
2017-12-17T06:05:10.611Z,1.6
2017-12-17T06:05:36.096Z,1.68
2017-12-17T06:06:01.602Z,1.62
2017-12-17T06:06:27.077Z,1.62
2017-12-17T06:06:52.598Z,1.62
2017-12-17T06:07:18.091Z,1.56
2017-12-17T06:07:43.580Z,1.6
2017-12-17T06:08:09.079Z,1.58
2017-12-17T06:08:34.554Z,1.55
2017-12-17T06:09:00.091Z,1.58
2017-12-17T06:09:25.568Z,1.59
2017-12-17T06:09:51.069Z,1.67
2017-12-17T06:10:54.683Z,1.56
2017-12-17T06:11:20.158Z,1.5
2017-12-17T06:11:45.652Z,1.55
2017-12-17T06:12:11.137Z,1.55
2017-12-17T06:12:36.610Z,1.52
2017-12-17T06:13:02.123Z,1.5
2017-12-17T06:13:55.514Z,1.55
2017-12-17T06:14:21.028Z,1.48
2017-12-17T06:14:46.511Z,1.53
2017-12-17T06:15:11.993Z,1.56
2017-12-17T06:15:37.491Z,1.45
2017-12-17T06:16:02.985Z,1.48
2017-12-17T06:16:28.486Z,1.44
2017-12-17T06:16:54.003Z,1.41
2017-12-17T06:17:19.524Z,1.48
2017-12-17T06:17:44.996Z,1.5
2017-12-17T06:18:10.478Z,1.4
2017-12-17T06:18:35.972Z,1.45
2017-12-17T06:19:01.469Z,1.42
2017-12-17T06:19:26.941Z,1.45
2017-12-17T06:19:52.453Z,1.5
2017-12-17T06:20:17.928Z,1.49
2017-12-17T06:20:43.436Z,1.44
2017-12-17T06:21:08.900Z,1.48
2017-12-17T06:21:34.393Z,1.44
2017-12-17T06:21:59.913Z,1.44
2017-12-17T06:22:25.396Z,1.34
2017-12-17T06:23:18.852Z,1.48
2017-12-17T06:23:44.344Z,1.41
2017-12-17T06:24:09.834Z,1.42
2017-12-17T06:24:35.368Z,1.37
2017-12-17T06:25:00.813Z,1.37
2017-12-17T06:25:26.301Z,1.42
2017-12-17T06:25:51.802Z,1.45
2017-12-17T06:26:17.312Z,1.35
2017-12-17T06:26:42.774Z,1.42
2017-12-17T06:27:08.256Z,1.4
2017-12-17T06:27:33.729Z,1.4
2017-12-17T06:27:59.200Z,1.35
2017-12-17T06:28:24.706Z,1.32
2017-12-17T06:28:50.209Z,1.35
2017-12-17T06:29:15.715Z,1.3
2017-12-17T06:29:41.213Z,1.38
2017-12-17T06:30:06.726Z,1.38
2017-12-17T06:30:32.247Z,1.35
2017-12-17T06:31:36.841Z,1.41
2017-12-17T06:32:02.320Z,1.38
2017-12-17T06:32:27.825Z,1.32
2017-12-17T06:32:53.315Z,1.31
2017-12-17T06:33:18.796Z,1.41
2017-12-17T06:33:44.296Z,1.31
2017-12-17T06:34:09.786Z,1.34
2017-12-17T06:34:35.282Z,1.3
2017-12-17T06:35:00.807Z,1.31
2017-12-17T06:35:26.288Z,1.41
2017-12-17T06:35:51.758Z,1.26
2017-12-17T06:36:17.294Z,1.28
2017-12-17T06:36:42.766Z,1.3
2017-12-17T06:37:08.237Z,1.28
2017-12-17T06:37:33.756Z,1.31
2017-12-17T06:37:59.233Z,1.26
2017-12-17T06:38:24.724Z,1.37
2017-12-17T06:38:50.246Z,1.3
2017-12-17T06:39:15.790Z,1.34
2017-12-17T06:39:41.254Z,1.28
2017-12-17T06:40:06.718Z,1.31
2017-12-17T06:40:32.220Z,1.3
2017-12-17T06:40:57.717Z,1.31
2017-12-17T06:41:23.231Z,1.26
2017-12-17T06:41:48.709Z,1.28
2017-12-17T06:42:14.184Z,1.32
2017-12-17T06:42:39.665Z,1.28
2017-12-17T06:43:05.165Z,1.31
2017-12-17T06:43:30.689Z,1.3
2017-12-17T06:43:56.158Z,1.3
2017-12-17T06:44:21.645Z,1.28
2017-12-17T06:44:47.118Z,1.31
2017-12-17T06:45:12.601Z,1.28
2017-12-17T06:46:06.039Z,1.28
2017-12-17T06:46:31.538Z,1.35
2017-12-17T06:46:57.032Z,1.26
2017-12-17T06:47:22.532Z,1.34
2017-12-17T06:47:48.008Z,1.31
2017-12-17T06:48:13.518Z,1.31
2017-12-17T06:48:39.063Z,1.24
2017-12-17T06:49:04.536Z,1.32
2017-12-17T06:49:30.053Z,1.31
2017-12-17T06:49:55.570Z,1.3
2017-12-17T06:50:21.056Z,1.3
2017-12-17T06:50:46.571Z,1.28
2017-12-17T06:51:12.062Z,1.19
2017-12-17T06:51:37.573Z,1.3
2017-12-17T06:52:03.065Z,1.24
2017-12-17T06:52:28.582Z,1.24
2017-12-17T06:52:54.082Z,1.22
2017-12-17T06:53:19.584Z,1.3
2017-12-17T06:53:45.093Z,1.2
2017-12-17T06:54:10.581Z,1.26
2017-12-17T06:54:36.080Z,1.35
2017-12-17T06:55:01.559Z,1.2
2017-12-17T06:55:27.066Z,1.26
2017-12-17T06:55:52.600Z,1.24
2017-12-17T06:56:18.115Z,1.3
2017-12-17T06:56:43.580Z,1.24
2017-12-17T06:57:09.063Z,1.23
2017-12-17T06:57:34.561Z,1.19
2017-12-17T06:58:00.120Z,1.26
2017-12-17T06:58:25.606Z,1.31
2017-12-17T06:58:51.118Z,1.22
2017-12-17T06:59:16.618Z,1.2
2017-12-17T06:59:42.105Z,1.3
2017-12-17T07:00:07.600Z,1.19
2017-12-17T07:00:33.100Z,1.19
2017-12-17T07:00:58.565Z,1.23
2017-12-17T07:01:24.072Z,1.19
2017-12-17T07:01:49.532Z,1.19
2017-12-17T07:02:15.044Z,1.16
2017-12-17T07:02:40.508Z,1.23
2017-12-17T07:03:06.027Z,1.19
2017-12-17T07:03:31.523Z,1.16
2017-12-17T07:03:56.993Z,1.22
2017-12-17T07:04:22.472Z,1.17
2017-12-17T07:05:26.114Z,1.19
2017-12-17T07:05:51.585Z,1.16
2017-12-17T07:06:17.070Z,1.14
2017-12-17T07:06:42.534Z,1.22
2017-12-17T07:07:08.034Z,1.2
2017-12-17T07:07:33.522Z,1.14
2017-12-17T07:07:59.026Z,1.17
2017-12-17T07:08:24.543Z,1.16
2017-12-17T07:08:50.062Z,1.17
2017-12-17T07:09:15.570Z,1.19
2017-12-17T07:09:41.060Z,1.16
2017-12-17T07:10:06.547Z,1.14
2017-12-17T07:10:32.045Z,1.12
2017-12-17T07:10:57.558Z,1.2
2017-12-17T07:11:45.867Z,1.14
2017-12-17T07:12:11.368Z,1.08
2017-12-17T07:12:36.856Z,1.12
2017-12-17T07:13:02.333Z,1.08
2017-12-17T07:13:27.809Z,1.17
2017-12-17T07:13:53.295Z,1.14
2017-12-17T07:14:18.780Z,1.23
2017-12-17T07:15:12.208Z,1.2
2017-12-17T07:15:37.715Z,1.04
2017-12-17T07:16:03.238Z,1.08
2017-12-17T07:17:11.913Z,1.2
2017-12-17T07:17:37.409Z,1.04
2017-12-17T07:18:02.926Z,1.04
2017-12-17T07:18:28.416Z,1.14
2017-12-17T07:18:53.873Z,1.01
2017-12-17T07:19:19.341Z,1.04
2017-12-17T07:19:44.821Z,1.13
2017-12-17T07:20:10.333Z,1.06
2017-12-17T07:20:35.814Z,1.14
2017-12-17T07:21:01.283Z,1.14
2017-12-17T07:21:59.773Z,1.05
2017-12-17T07:22:25.275Z,1.08
2017-12-17T07:22:50.771Z,1.05
2017-12-17T07:23:16.276Z,1.08
2017-12-17T07:23:41.780Z,1.02
2017-12-17T07:24:07.268Z,1.12
2017-12-17T07:24:32.732Z,1.12
2017-12-17T07:24:58.224Z,1.04
2017-12-17T07:25:23.753Z,0.96
2017-12-17T07:25:49.264Z,1.06
2017-12-17T07:26:14.767Z,1.08
2017-12-17T07:26:40.258Z,0.98
2017-12-17T07:27:05.803Z,1.1
2017-12-17T07:27:31.303Z,0.99
2017-12-17T07:27:56.816Z,0.98
2017-12-17T07:28:22.320Z,0.98
2017-12-17T07:28:47.811Z,1.01
2017-12-17T07:29:51.414Z,0.96
2017-12-17T07:30:16.930Z,0.99
2017-12-17T07:30:42.413Z,1.04
2017-12-17T07:31:07.905Z,0.98
2017-12-17T07:31:33.437Z,1.02
2017-12-17T07:31:58.982Z,1.1
2017-12-17T07:32:24.504Z,1.06
2017-12-17T07:32:50.001Z,1.02
2017-12-17T07:33:15.521Z,1.04
2017-12-17T07:33:41.011Z,1.12
2017-12-17T07:34:06.479Z,0.99
2017-12-17T07:34:31.960Z,1.1
2017-12-17T07:34:57.478Z,1.04
2017-12-17T07:35:23.019Z,1.08
2017-12-17T07:35:48.567Z,1.05
2017-12-17T07:36:14.096Z,1.08
2017-12-17T07:36:39.595Z,1.06
2017-12-17T07:37:05.077Z,1.04
2017-12-17T07:37:30.709Z,1.06
2017-12-17T07:38:39.449Z,1.01
2017-12-17T07:39:04.917Z,1.06
2017-12-17T07:39:30.425Z,1.08
2017-12-17T07:39:55.938Z,1.02
2017-12-17T07:40:21.406Z,1.14
2017-12-17T07:40:46.896Z,1.02
2017-12-17T07:41:12.398Z,1.06
2017-12-17T07:41:37.868Z,1.08
2017-12-17T07:42:03.439Z,1.02
2017-12-17T07:42:28.979Z,1.1
2017-12-17T07:42:54.432Z,1.06
2017-12-17T07:43:19.922Z,1.12
2017-12-17T07:43:45.566Z,1.22
2017-12-17T07:44:11.251Z,1.22
2017-12-17T07:44:36.782Z,1.13
2017-12-17T07:45:02.287Z,1.05
2017-12-17T07:45:55.726Z,1.06
2017-12-17T07:46:21.232Z,1.14
2017-12-17T07:46:46.724Z,1.17
2017-12-17T07:47:12.200Z,1.06
2017-12-17T07:47:37.684Z,1.24
2017-12-17T07:48:03.440Z,1.2
2017-12-17T07:48:28.924Z,1.17
2017-12-17T07:48:54.440Z,1.16
2017-12-17T07:49:19.934Z,1.06
2017-12-17T07:49:45.542Z,1.19
2017-12-17T07:50:11.082Z,1.02
2017-12-17T07:50:36.540Z,1.13
2017-12-17T07:51:02.062Z,1.19
2017-12-17T07:51:27.572Z,1.14
2017-12-17T07:51:53.065Z,1.02
2017-12-17T07:52:18.592Z,1.08
2017-12-17T07:52:44.114Z,1.12
2017-12-17T07:53:09.662Z,1.19
2017-12-17T07:53:35.115Z,1.13
2017-12-17T07:54:00.570Z,1.17
2017-12-17T07:54:26.059Z,1.22
2017-12-17T07:54:51.582Z,1.19
2017-12-17T07:55:17.045Z,1.19
2017-12-17T07:55:42.534Z,1.17
2017-12-17T07:56:08.009Z,1.04
2017-12-17T07:56:33.490Z,1.22
2017-12-17T07:56:58.995Z,1.17
2017-12-17T07:57:24.499Z,1.04
2017-12-17T07:57:49.987Z,1.12
2017-12-17T07:58:15.520Z,1.14
2017-12-17T07:58:41.052Z,1.1
2017-12-17T07:59:06.537Z,1.16
2017-12-17T08:00:00.963Z,1.16
2017-12-17T08:00:26.463Z,1.14
2017-12-17T08:00:51.961Z,1.12
2017-12-17T08:01:17.442Z,1.19
2017-12-17T08:01:43.007Z,1.13
2017-12-17T08:02:08.448Z,1.14
2017-12-17T08:02:33.891Z,1.14
2017-12-17T08:02:59.376Z,1.13
2017-12-17T08:03:24.842Z,1.14
2017-12-17T08:03:50.345Z,1.22
2017-12-17T08:04:15.843Z,1.23
2017-12-17T08:04:41.292Z,1.23
2017-12-17T08:05:06.835Z,1.22
2017-12-17T08:05:32.332Z,1.3
2017-12-17T08:05:57.785Z,1.24
2017-12-17T08:06:23.297Z,1.31
2017-12-17T08:06:48.811Z,1.26
2017-12-17T08:07:14.319Z,1.28
2017-12-17T08:07:39.819Z,1.34
2017-12-17T08:08:05.322Z,1.34
2017-12-17T08:08:30.825Z,1.31
2017-12-17T08:08:56.349Z,1.28
2017-12-17T08:09:21.875Z,1.32
2017-12-17T08:09:47.382Z,1.26
2017-12-17T08:10:12.850Z,1.38
2017-12-17T08:10:38.368Z,1.35
2017-12-17T08:11:03.836Z,1.35
2017-12-17T08:11:29.337Z,1.4
2017-12-17T08:11:54.842Z,1.37
2017-12-17T08:12:20.372Z,1.35
2017-12-17T08:12:45.935Z,1.35
2017-12-17T08:13:11.407Z,1.37
2017-12-17T08:13:36.868Z,1.35
2017-12-17T08:14:02.363Z,1.41
2017-12-17T08:14:27.886Z,1.37
2017-12-17T08:14:53.399Z,1.34
2017-12-17T08:15:18.861Z,1.38
2017-12-17T08:15:44.380Z,1.34
2017-12-17T08:16:09.902Z,1.38
2017-12-17T08:16:35.375Z,1.32
2017-12-17T08:17:00.866Z,1.28
2017-12-17T08:17:54.306Z,1.31
2017-12-17T08:18:19.804Z,1.26
2017-12-17T08:18:45.333Z,1.26
2017-12-17T08:19:10.830Z,1.35
2017-12-17T08:19:36.357Z,1.3
2017-12-17T08:20:01.885Z,1.28
2017-12-17T08:20:27.421Z,1.26
2017-12-17T08:20:52.900Z,1.34
2017-12-17T08:21:18.355Z,1.32
2017-12-17T08:21:43.862Z,1.35
2017-12-17T08:22:09.400Z,1.26
2017-12-17T08:22:34.905Z,1.31
2017-12-17T08:23:00.383Z,1.31
2017-12-17T08:23:25.874Z,1.24
2017-12-17T08:23:51.396Z,1.32
2017-12-17T08:24:16.887Z,1.26
2017-12-17T08:24:42.392Z,1.24
2017-12-17T08:25:07.941Z,1.2
2017-12-17T08:25:33.422Z,1.28
2017-12-17T08:25:58.939Z,1.35
2017-12-17T08:26:24.431Z,1.31
2017-12-17T08:27:22.948Z,1.24
2017-12-17T08:27:48.451Z,1.3
2017-12-17T08:28:13.926Z,1.26
2017-12-17T08:28:39.447Z,1.26
2017-12-17T08:29:04.985Z,1.31
2017-12-17T08:29:30.519Z,1.26
2017-12-17T08:29:55.998Z,1.31
2017-12-17T08:30:21.482Z,1.31
2017-12-17T08:30:46.981Z,1.32
2017-12-17T08:31:12.506Z,1.24
2017-12-17T08:31:38.022Z,1.3
2017-12-17T08:32:03.571Z,1.28
2017-12-17T08:32:51.906Z,1.32
2017-12-17T08:33:17.419Z,1.34
2017-12-17T08:33:42.901Z,1.35
2017-12-17T08:34:08.433Z,1.37
2017-12-17T08:34:33.960Z,1.38
2017-12-17T08:34:59.433Z,1.38
2017-12-17T08:35:24.938Z,1.5
2017-12-17T08:35:50.410Z,1.45
2017-12-17T08:36:15.906Z,1.42
2017-12-17T08:36:41.431Z,1.55
2017-12-17T08:37:06.919Z,1.52
2017-12-17T08:37:32.425Z,1.52
2017-12-17T08:37:57.889Z,1.52
2017-12-17T08:38:23.420Z,1.58
2017-12-17T08:38:48.896Z,1.63
2017-12-17T08:39:14.342Z,1.62
2017-12-17T08:39:39.838Z,1.6
2017-12-17T08:40:05.314Z,1.59
2017-12-17T08:40:30.796Z,1.6
2017-12-17T08:40:56.290Z,1.68
2017-12-17T08:41:21.781Z,1.67
2017-12-17T08:41:47.264Z,1.68
2017-12-17T08:42:12.784Z,1.71
2017-12-17T08:42:38.303Z,1.58
2017-12-17T08:43:03.871Z,1.73
2017-12-17T08:43:29.382Z,1.71
2017-12-17T08:43:54.867Z,1.67
2017-12-17T08:44:20.359Z,1.74
2017-12-17T08:44:45.844Z,1.71
2017-12-17T08:45:11.346Z,1.73
2017-12-17T08:45:36.839Z,1.76
2017-12-17T08:46:02.323Z,1.78
2017-12-17T08:46:55.791Z,1.74
2017-12-17T08:47:21.269Z,1.87
2017-12-17T08:47:46.765Z,1.8
2017-12-17T08:48:12.230Z,1.8
2017-12-17T08:48:37.721Z,1.84
2017-12-17T08:49:03.183Z,1.77
2017-12-17T08:49:28.675Z,1.92
2017-12-17T08:49:54.234Z,1.85
2017-12-17T08:50:19.716Z,1.85
2017-12-17T08:51:24.331Z,1.87
2017-12-17T08:51:49.827Z,1.89
2017-12-17T08:52:15.338Z,1.99
2017-12-17T08:53:24.052Z,1.78
2017-12-17T08:53:49.541Z,1.84
2017-12-17T08:54:15.074Z,1.89
2017-12-17T08:54:40.508Z,1.91
2017-12-17T08:55:05.941Z,1.94
2017-12-17T08:55:31.462Z,1.95
2017-12-17T08:55:56.860Z,1.94
2017-12-17T08:56:22.366Z,1.88
2017-12-17T08:56:47.908Z,1.81
2017-12-17T08:57:13.372Z,1.92
2017-12-17T08:57:38.847Z,1.89
2017-12-17T08:58:04.348Z,1.95
2017-12-17T08:58:29.822Z,1.95
2017-12-17T08:58:55.291Z,1.95
2017-12-17T08:59:53.849Z,1.94
2017-12-17T09:00:19.302Z,1.99
2017-12-17T09:00:44.786Z,2
2017-12-17T09:01:10.298Z,2.04
2017-12-17T09:01:35.752Z,2
2017-12-17T09:02:01.250Z,2.06
2017-12-17T09:02:27.031Z,2.06
2017-12-17T09:02:52.574Z,2.02
2017-12-17T09:03:18.068Z,1.99
2017-12-17T09:03:43.613Z,2.06
2017-12-17T09:04:09.132Z,2.06
2017-12-17T09:04:34.686Z,2
2017-12-17T09:05:00.189Z,1.99
2017-12-17T09:05:25.705Z,1.94
2017-12-17T09:05:51.249Z,1.97
2017-12-17T09:06:16.792Z,2.02
2017-12-17T09:06:42.255Z,1.97
2017-12-17T09:07:45.875Z,1.99
2017-12-17T09:08:11.402Z,2
2017-12-17T09:08:36.889Z,1.97
2017-12-17T09:09:02.373Z,1.97
2017-12-17T09:09:27.894Z,1.97
2017-12-17T09:09:53.428Z,1.99
2017-12-17T09:10:18.912Z,1.95
2017-12-17T09:10:44.366Z,2.06
2017-12-17T09:11:47.441Z,2.14
2017-12-17T09:12:12.934Z,2.07
2017-12-17T09:12:38.413Z,2.04
2017-12-17T09:13:03.904Z,2
2017-12-17T09:13:29.390Z,2.11
2017-12-17T09:13:54.876Z,2.13
2017-12-17T09:14:20.389Z,2.1
2017-12-17T09:14:45.902Z,2.13
2017-12-17T09:15:11.397Z,2.11
2017-12-17T09:15:36.909Z,2.17
2017-12-17T09:16:02.427Z,2.14
2017-12-17T09:16:27.939Z,2.15
2017-12-17T09:16:53.411Z,2.15
2017-12-17T09:17:18.928Z,2.17
2017-12-17T09:17:44.436Z,2.2
2017-12-17T09:18:09.943Z,2.17
2017-12-17T09:18:35.450Z,2.17
2017-12-17T09:19:00.955Z,2.24
2017-12-17T09:20:04.594Z,2.26
2017-12-17T09:20:30.098Z,2.31
2017-12-17T09:20:55.585Z,2.25
2017-12-17T09:21:21.097Z,2.26
2017-12-17T09:21:46.569Z,2.26
2017-12-17T09:22:12.092Z,2.29
2017-12-17T09:22:37.574Z,2.35
2017-12-17T09:23:03.066Z,2.33
2017-12-17T09:23:28.576Z,2.26
2017-12-17T09:23:54.054Z,2.35
2017-12-17T09:24:19.578Z,2.36
2017-12-17T09:24:45.073Z,2.36
2017-12-17T09:25:10.594Z,2.33
2017-12-17T09:25:36.122Z,2.38
2017-12-17T09:26:29.555Z,2.35
2017-12-17T09:26:55.017Z,2.36
2017-12-17T09:27:20.521Z,2.33
2017-12-17T09:27:46.001Z,2.44
2017-12-17T09:28:11.496Z,2.35
2017-12-17T09:28:37.080Z,2.44
2017-12-17T09:29:02.470Z,2.42
2017-12-17T09:29:27.964Z,2.43
2017-12-17T09:29:53.470Z,2.43
2017-12-17T09:30:19.012Z,2.44
2017-12-17T09:30:44.490Z,2.39
2017-12-17T09:31:10.003Z,2.42
2017-12-17T09:31:35.502Z,2.44
2017-12-17T09:32:01.006Z,2.43
2017-12-17T09:32:26.507Z,2.35
2017-12-17T09:32:51.966Z,2.47
2017-12-17T09:33:17.479Z,2.42
2017-12-17T09:33:42.978Z,2.44
2017-12-17T09:34:08.522Z,2.44
2017-12-17T09:34:33.961Z,2.54
2017-12-17T09:34:59.420Z,2.46
2017-12-17T09:35:24.937Z,2.5
2017-12-17T09:35:50.434Z,2.49
2017-12-17T09:36:15.922Z,2.5
2017-12-17T09:37:19.523Z,2.54
2017-12-17T09:37:45.061Z,2.53
2017-12-17T09:38:10.546Z,2.61
2017-12-17T09:38:36.040Z,2.64
2017-12-17T09:39:01.518Z,2.64
2017-12-17T09:39:27.014Z,2.6
2017-12-17T09:39:52.492Z,2.61
2017-12-17T09:40:17.967Z,2.62
2017-12-17T09:40:43.482Z,2.62
2017-12-17T09:41:08.957Z,2.62
2017-12-17T09:41:34.430Z,2.61
2017-12-17T09:41:59.935Z,2.61
2017-12-17T09:42:25.445Z,2.6
2017-12-17T09:42:50.937Z,2.64
2017-12-17T09:43:16.437Z,2.64
2017-12-17T09:43:41.928Z,2.57
2017-12-17T09:44:07.412Z,2.69
2017-12-17T09:44:32.930Z,2.74
2017-12-17T09:44:58.406Z,2.74
2017-12-17T09:45:23.910Z,2.71
2017-12-17T09:45:49.427Z,2.75
2017-12-17T09:46:14.912Z,2.75
2017-12-17T09:46:40.409Z,2.74
2017-12-17T09:47:05.865Z,2.71
2017-12-17T09:47:31.346Z,2.82
2017-12-17T09:47:56.892Z,2.71
2017-12-17T09:48:22.366Z,2.75
2017-12-17T09:48:47.899Z,2.79
2017-12-17T09:49:13.432Z,2.83
2017-12-17T09:49:38.878Z,2.72
2017-12-17T09:50:04.358Z,2.79
2017-12-17T09:50:29.845Z,2.8
2017-12-17T09:50:55.327Z,2.77
2017-12-17T09:51:20.854Z,2.77
2017-12-17T09:51:46.360Z,2.75
2017-12-17T09:52:11.861Z,2.74
2017-12-17T09:52:37.410Z,2.87
2017-12-17T09:53:02.938Z,2.8
2017-12-17T09:53:28.435Z,2.75
2017-12-17T09:53:53.933Z,2.79
2017-12-17T09:54:19.427Z,2.8
2017-12-17T09:54:44.932Z,2.75
2017-12-17T09:55:10.419Z,2.79
2017-12-17T09:55:35.905Z,2.82
2017-12-17T09:56:01.395Z,2.72
2017-12-17T09:56:26.884Z,2.82
2017-12-17T09:56:52.384Z,2.83
2017-12-17T09:57:17.842Z,2.77
2017-12-17T09:57:43.338Z,2.83
2017-12-17T09:58:08.844Z,2.86
2017-12-17T09:58:34.332Z,2.83
2017-12-17T09:58:59.808Z,2.83
2017-12-17T09:59:25.297Z,2.8
2017-12-17T09:59:50.838Z,2.74
2017-12-17T10:00:16.308Z,2.79
2017-12-17T10:00:41.777Z,2.8
2017-12-17T10:01:30.082Z,2.85
2017-12-17T10:01:55.577Z,2.79
2017-12-17T10:02:21.057Z,2.72
2017-12-17T10:02:46.553Z,2.74
2017-12-17T10:03:12.053Z,2.74
2017-12-17T10:03:37.552Z,2.74
2017-12-17T10:04:03.031Z,2.74
2017-12-17T10:04:28.529Z,2.71
2017-12-17T10:04:54.013Z,2.74
2017-12-17T10:05:19.501Z,2.86
2017-12-17T10:05:45.006Z,2.75
2017-12-17T10:06:10.496Z,2.79
2017-12-17T10:06:35.979Z,2.77
2017-12-17T10:07:01.503Z,2.83
2017-12-17T10:07:26.993Z,2.82
2017-12-17T10:07:52.485Z,2.8
2017-12-17T10:08:17.955Z,2.87
2017-12-17T10:08:43.457Z,2.8
2017-12-17T10:09:08.947Z,2.8
2017-12-17T10:09:34.449Z,2.82
2017-12-17T10:09:59.931Z,2.85
2017-12-17T10:10:25.405Z,2.82
2017-12-17T10:10:50.913Z,2.87
2017-12-17T10:11:16.385Z,2.82
2017-12-17T10:11:41.893Z,2.85
2017-12-17T10:12:07.393Z,2.9
2017-12-17T10:12:32.942Z,2.89
2017-12-17T10:12:58.441Z,2.89
2017-12-17T10:13:23.933Z,2.87
2017-12-17T10:13:49.441Z,2.89
2017-12-17T10:14:14.970Z,2.95
2017-12-17T10:14:40.450Z,2.93
2017-12-17T10:15:05.918Z,2.86
2017-12-17T10:15:31.426Z,2.95
2017-12-17T10:15:56.985Z,2.92
2017-12-17T10:16:22.477Z,2.9
2017-12-17T10:16:47.986Z,2.97
2017-12-17T10:17:13.466Z,2.86
2017-12-17T10:18:01.774Z,2.97
2017-12-17T10:18:27.330Z,2.86
2017-12-17T10:18:52.778Z,2.93
2017-12-17T10:19:18.267Z,2.89
2017-12-17T10:19:43.758Z,2.92
2017-12-17T10:20:09.258Z,2.9
2017-12-17T10:20:34.758Z,2.9
2017-12-17T10:21:00.245Z,2.95
2017-12-17T10:21:25.742Z,2.98
2017-12-17T10:21:51.243Z,2.89
2017-12-17T10:22:16.728Z,2.97
2017-12-17T10:22:42.261Z,2.92
2017-12-17T10:23:07.772Z,2.93
2017-12-17T10:23:33.215Z,2.87
2017-12-17T10:23:58.727Z,2.89
2017-12-17T10:24:24.210Z,2.87
2017-12-17T10:24:49.702Z,2.87
2017-12-17T10:25:15.196Z,2.97
2017-12-17T10:25:40.678Z,2.92
2017-12-17T10:26:06.150Z,2.89
2017-12-17T10:26:31.626Z,2.89
2017-12-17T10:26:57.107Z,3
2017-12-17T10:27:22.583Z,2.95
2017-12-17T10:27:48.087Z,3
2017-12-17T10:28:13.585Z,2.89
2017-12-17T10:28:39.096Z,2.92
2017-12-17T10:29:04.614Z,3.01
2017-12-17T10:29:30.140Z,2.98
2017-12-17T10:29:55.661Z,3.05
2017-12-17T10:30:21.095Z,3.04
2017-12-17T10:30:46.592Z,3.1
2017-12-17T10:31:12.107Z,3.08
2017-12-17T10:31:37.616Z,3.14
2017-12-17T10:32:03.140Z,3.1
2017-12-17T10:32:28.619Z,3.04
2017-12-17T10:32:54.099Z,3.19
2017-12-17T10:33:19.567Z,3.19
2017-12-17T10:33:45.100Z,3.19
2017-12-17T10:34:10.613Z,3.03
2017-12-17T10:34:36.130Z,3.11
2017-12-17T10:35:01.617Z,3.1
2017-12-17T10:35:27.095Z,3.05
2017-12-17T10:35:52.579Z,3.1
2017-12-17T10:36:18.063Z,3.13
2017-12-17T10:36:43.599Z,3.04
2017-12-17T10:37:09.068Z,3.11
2017-12-17T10:37:34.573Z,3.18
2017-12-17T10:38:00.070Z,3.04
2017-12-17T10:38:25.571Z,3.08
2017-12-17T10:38:51.030Z,3.13
2017-12-17T10:39:16.521Z,3.16
2017-12-17T10:39:41.990Z,3.07
2017-12-17T10:40:07.499Z,3.05
2017-12-17T10:40:32.972Z,3.19
2017-12-17T10:40:58.465Z,3.05
2017-12-17T10:41:23.970Z,3.07
2017-12-17T10:41:49.452Z,3.04
2017-12-17T10:42:14.963Z,3.04
2017-12-17T10:42:40.426Z,3.07
2017-12-17T10:43:05.919Z,3.04
2017-12-17T10:43:31.447Z,3.11
2017-12-17T10:43:56.858Z,3.1
2017-12-17T10:44:22.352Z,3.05
2017-12-17T10:44:47.845Z,3.08
2017-12-17T10:45:13.340Z,3.04
2017-12-17T10:45:38.902Z,3.05
2017-12-17T10:46:04.437Z,3.03
2017-12-17T10:46:29.869Z,3.1
2017-12-17T10:46:55.325Z,3.07
2017-12-17T10:47:20.827Z,3.04
2017-12-17T10:47:46.324Z,3.08
2017-12-17T10:48:11.827Z,3.07
2017-12-17T10:48:37.304Z,3.14
2017-12-17T10:49:02.858Z,3.07
2017-12-17T10:49:28.297Z,3.16
2017-12-17T10:49:53.816Z,3.08
2017-12-17T10:50:19.320Z,3.18
2017-12-17T10:50:44.824Z,3.21
2017-12-17T10:51:10.343Z,3.16
2017-12-17T10:51:35.838Z,3.16
2017-12-17T10:52:01.323Z,3.14
2017-12-17T10:52:26.820Z,3.19
2017-12-17T10:52:52.420Z,3.25
2017-12-17T10:53:17.877Z,3.31
2017-12-17T10:53:43.374Z,3.28
2017-12-17T10:54:08.862Z,3.26
2017-12-17T10:54:34.367Z,3.28
2017-12-17T10:54:59.824Z,3.23
2017-12-17T10:55:25.329Z,3.26
2017-12-17T10:55:50.851Z,3.23
2017-12-17T10:56:16.353Z,3.23
2017-12-17T10:56:41.858Z,3.23
2017-12-17T10:57:07.345Z,3.23
2017-12-17T10:57:32.840Z,3.23
2017-12-17T10:57:58.355Z,3.23
2017-12-17T10:58:23.853Z,3.16
2017-12-17T10:58:49.338Z,3.23
2017-12-17T10:59:14.826Z,3.16
2017-12-17T10:59:40.343Z,3.13
2017-12-17T11:00:05.861Z,3.16
2017-12-17T11:00:31.354Z,3.19
2017-12-17T11:00:56.847Z,3.19
2017-12-17T11:01:22.329Z,3.14
2017-12-17T11:01:47.791Z,3.13
2017-12-17T11:02:13.299Z,3.23
2017-12-17T11:02:38.825Z,3.14